Birch Creek GC
600 E Center St, Smithfield
Last Weather Update:05/18/2012 9:00:00 AM
Date
ETo
ETc
Rain
Irrigation
Req
Temp
Max
Temp
Min
Temp
Avg
Avg RH
Avg Wind
Avg Solar
inches
inches
incehs
inches
F
F
F
%
%
watts/m2
04/01/2012 0.08" 0.00" 0.03" -0.02" 63.3° 32.1° 39.8° 41.9% 8.6 MPH 149.7w/m2
04/02/2012 0.15" 0.01" 0.00" 0.01" 51.2° 28.3° 38.7° 47.3% 6.8 MPH 283.8w/m2
04/03/2012 0.15" 0.01" 0.00" 0.01" 61.0° 29.7° 44.9° 59.0% 4.3 MPH 281.9w/m2
04/04/2012 0.19" 0.01" 0.00" 0.01" 65.5° 38.1° 49.5° 48.5% 5.7 MPH 280.8w/m2
04/05/2012 0.13" 0.01" 0.00" 0.01" 54.4° 29.3° 41.6° 41.9% 4.6 MPH 245.8w/m2
04/06/2012 0.05" 0.01" 0.11" -0.08" 39.2° 26.8° 32.1° 69.0% 5.2 MPH 147.5w/m2
04/07/2012 0.15" 0.02" 0.00" 0.02" 55.5° 25.5° 40.2° 37.3% 3.5 MPH 288.1w/m2
04/08/2012 0.19" 0.03" 0.00" 0.03" 69.1° 32.6° 49.6° 40.0% 3.7 MPH 297.8w/m2
04/09/2012 0.19" 0.03" 0.00" 0.03" 72.2° 36.1° 53.6° 32.4% 3.6 MPH 293.2w/m2
04/10/2012 0.19" 0.04" 0.00" 0.04" 75.2° 38.1° 56.7° 40.9% 4.3 MPH 257.7w/m2
04/11/2012 0.20" 0.04" 0.13" -0.06" 72.9° 43.2° 54.8° 70.0% 6.3 MPH 248.4w/m2
04/12/2012 0.05" 0.01" 0.42" -0.32" 45.7° 34.4° 39.7° 79.3% 6.1 MPH 91.3w/m2
04/13/2012 0.11" 0.03" 0.06" -0.02" 53.1° 32.8° 41.0° 71.5% 3.9 MPH 235.1w/m2
04/14/2012 0.13" 0.04" 0.00" 0.04" 56.0° 31.1° 44.5° 51.9% 4.2 MPH 244.0w/m2
04/15/2012 0.15" 0.04" 0.00" 0.04" 55.2° 34.2° 44.4° 44.3% 5.0 MPH 236.1w/m2
04/17/2012 0.04" 0.02" 0.00" 0.02" 59.2° 43.6° 50.8° 49.5% 4.7 MPH 207.8w/m2
04/18/2012 0.06" 0.02" 0.31" -0.23" 55.0° 41.0° 46.8° 88.1% 4.8 MPH 95.1w/m2
04/19/2012 0.09" 0.04" 0.03" 0.01" 57.0° 39.3° 47.7° 75.4% 3.3 MPH 177.8w/m2
04/20/2012 0.14" 0.05" 0.00" 0.05" 66.6° 46.3° 55.1° 68.5% 3.6 MPH 213.9w/m2
04/21/2012 0.21" 0.09" 0.00" 0.09" 76.2° 43.3° 60.1° 49.9% 3.4 MPH 317.6w/m2
04/22/2012 0.22" 0.10" 0.00" 0.10" 80.6° 46.9° 63.4° 33.2% 3.9 MPH 302.8w/m2
04/23/2012 0.19" 0.09" 0.00" 0.09" 83.9° 51.0° 65.8° 44.5% 3.6 MPH 251.0w/m2
04/24/2012 0.23" 0.11" 0.00" 0.11" 79.8° 51.5° 66.3° 55.1% 5.2 MPH 282.7w/m2
04/25/2012 0.19" 0.09" 0.00" 0.09" 73.6° 54.0° 64.1° 37.1% 5.9 MPH 218.7w/m2
04/26/2012 0.17" 0.09" 0.66" -0.44" 72.4° 38.7° 59.4° 95.8% 6.9 MPH 180.9w/m2
04/27/2012 0.10" 0.05" 0.07" 0.00" 46.1° 33.1° 38.6° 64.2% 6.1 MPH 205.2w/m2
04/28/2012 0.14" 0.08" 0.00" 0.08" 52.3° 28.6° 40.5° 56.1% 3.9 MPH 289.6w/m2
04/29/2012 0.18" 0.10" 0.00" 0.10" 59.6° 34.6° 47.1° 52.8% 3.8 MPH 331.3w/m2
04/30/2012 0.16" 0.09" 0.10" 0.01" 65.9° 36.7° 53.0° 89.0% 5.5 MPH 204.2w/m2
Totals: 4.23" 1.36" 1.92" -0.17" 83.9° 25.5° 49.3° 56.4% 4.8 MPH 236.5w/m2